Time;durP1;ratioP1;P1;durP2;ratioP2;P2;SDS_P1;SDS_P2;PMS_P1;PMS_P2;Temp;Humidity;BMP_temperature;BMP_pressure;BME280_temperature;BME280_humidity;BME280_pressure;Samples;Min_cycle;Max_cycle;Signal;HPM_P1;HPM_P2
2021/05/09 00:02:13;;;;;;;4.80;1.60;;;16.80;99.90;;;;;;20479361;23;20235;-71
2021/05/09 00:12:17;;;;;;;9.03;1.90;;;16.50;99.90;;;;;;20689952;28;20223;-71
2021/05/09 00:22:20;;;;;;;3.77;1.83;;;16.50;99.90;;;;;;20704415;28;20200;-69
2021/05/09 00:32:25;;;;;;;1.23;1.10;;;16.20;99.90;;;;;;20704963;28;20221;-71
2021/05/09 00:42:29;;;;;;;1.47;1.13;;;15.90;99.90;;;;;;20690968;28;21278;-72
2021/05/09 00:52:38;;;;;;;2.00;0.60;;;15.70;99.90;;;;;;20704859;28;20385;-73
2021/05/09 01:02:42;;;;;;;0.67;0.67;;;15.60;99.90;;;;;;20665352;23;20308;-76
2021/05/09 01:12:45;;;;;;;0.47;0.43;;;15.50;99.90;;;;;;20468790;28;20304;-76
2021/05/09 01:22:49;;;;;;;2.90;1.10;;;15.60;99.90;;;;;;20540504;28;20209;-78
2021/05/09 01:32:52;;;;;;;0.70;0.70;;;15.70;99.90;;;;;;20524654;28;20222;-77
2021/05/09 01:42:57;;;;;;;1.80;0.63;;;15.70;99.90;;;;;;20541671;28;20219;-78
2021/05/09 01:53:01;;;;;;;0.67;0.50;;;15.90;99.90;;;;;;20522594;28;20235;-78
2021/05/09 02:03:08;;;;;;;0.20;0.17;;;15.90;99.90;;;;;;20663716;23;20321;-77
2021/05/09 02:13:11;;;;;;;1.30;1.00;;;15.40;99.90;;;;;;20621074;28;20233;-77
2021/05/09 02:23:14;;;;;;;0.30;0.30;;;15.40;99.90;;;;;;20617997;28;20201;-79
2021/05/09 02:33:17;;;;;;;1.37;1.27;;;15.20;99.90;;;;;;20618015;28;20965;-78
2021/05/09 02:43:20;;;;;;;1.50;0.93;;;15.20;99.90;;;;;;20616167;28;20531;-76
2021/05/09 02:53:23;;;;;;;0.60;0.47;;;15.00;99.90;;;;;;20617618;28;20227;-75
2021/05/09 03:03:27;;;;;;;1.07;0.60;;;14.90;99.90;;;;;;20692559;23;20227;-71
2021/05/09 03:13:31;;;;;;;0.30;0.30;;;15.00;99.90;;;;;;20584374;28;20250;-71
2021/05/09 03:23:35;;;;;;;0.93;0.80;;;15.20;99.90;;;;;;20613190;28;20200;-70
2021/05/09 03:33:38;;;;;;;0.70;0.60;;;15.20;99.90;;;;;;20614319;28;20437;-70
2021/05/09 03:43:42;;;;;;;4.17;0.47;;;15.20;99.90;;;;;;20611860;28;20302;-69
2021/05/09 03:53:45;;;;;;;0.40;0.40;;;15.40;99.90;;;;;;20611246;28;20246;-68
2021/05/09 04:03:48;;;;;;;0.27;0.27;;;15.10;99.90;;;;;;20839505;23;20238;-73
2021/05/09 04:13:54;;;;;;;0.93;0.93;;;14.90;99.90;;;;;;20609726;28;20219;-77
2021/05/09 04:23:58;;;;;;;0.30;0.27;;;15.00;99.90;;;;;;20610072;28;20564;-76
2021/05/09 04:34:00;;;;;;;1.80;1.33;;;14.60;99.90;;;;;;20612085;28;20789;-78
2021/05/09 04:44:05;;;;;;;0.80;0.80;;;14.80;99.90;;;;;;20610016;28;20288;-76
2021/05/09 04:54:07;;;;;;;0.50;0.50;;;14.70;99.90;;;;;;20611100;28;20632;-75
2021/05/09 05:04:11;;;;;;;1.33;1.23;;;14.80;99.90;;;;;;20655020;28;20309;-76
2021/05/09 05:14:13;;;;;;;0.20;0.13;;;15.30;99.90;;;;;;20706128;28;21026;-75
2021/05/09 05:24:17;;;;;;;4.23;0.50;;;16.40;99.90;;;;;;20702036;28;20640;-76
2021/05/09 05:34:20;;;;;;;0.23;0.23;;;16.70;99.90;;;;;;20702386;28;20253;-76
2021/05/09 05:44:23;;;;;;;1.47;0.53;;;16.90;99.90;;;;;;20702479;28;20198;-76
2021/05/09 05:54:26;;;;;;;0.40;0.40;;;17.10;99.90;;;;;;20700612;28;20683;-76
2021/05/09 06:04:29;;;;;;;0.53;0.43;;;17.40;99.90;;;;;;20655341;28;20343;-76
2021/05/09 06:14:32;;;;;;;0.20;0.10;;;17.70;99.90;;;;;;20603412;28;20424;-79
2021/05/09 06:24:36;;;;;;;0.20;0.20;;;17.90;99.90;;;;;;20619750;28;20195;-77
2021/05/09 06:34:42;;;;;;;0.30;0.30;;;18.20;99.90;;;;;;20603132;28;20759;-75
2021/05/09 06:44:49;;;;;;;0.20;0.07;;;18.30;99.90;;;;;;20599034;28;20191;-75
2021/05/09 06:54:52;;;;;;;0.20;0.10;;;18.50;99.90;;;;;;20619627;28;20227;-77
2021/05/09 07:04:55;;;;;;;2.00;0.80;;;18.70;99.90;;;;;;20630956;28;20270;-78
2021/05/09 07:14:58;;;;;;;1.13;0.50;;;19.10;99.90;;;;;;20617031;28;20218;-77
2021/05/09 07:25:02;;;;;;;0.20;0.20;;;19.10;99.90;;;;;;20613409;28;20203;-78
2021/05/09 07:35:05;;;;;;;0.40;0.20;;;19.30;99.90;;;;;;20621646;28;20586;-79
2021/05/09 07:45:15;;;;;;;0.43;0.43;;;19.40;99.90;;;;;;20608925;28;20578;-76
2021/05/09 07:55:18;;;;;;;0.20;0.20;;;19.90;99.90;;;;;;20645312;28;20306;-73
2021/05/09 08:05:23;;;;;;;0.30;0.20;;;20.30;99.90;;;;;;20599181;28;20796;-76
2021/05/09 08:15:26;;;;;;;0.20;0.10;;;20.40;99.90;;;;;;20614875;28;20238;-75
2021/05/09 08:25:38;;;;;;;0.20;0.20;;;20.40;99.90;;;;;;20611572;28;20195;-75
2021/05/09 08:35:40;;;;;;;0.70;0.70;;;20.80;99.90;;;;;;20612927;28;20246;-73
2021/05/09 08:45:44;;;;;;;0.40;0.40;;;21.10;99.90;;;;;;20629753;28;20192;-73
2021/05/09 08:55:48;;;;;;;0.20;0.20;;;21.50;99.90;;;;;;20640017;28;20417;-75
2021/05/09 09:05:52;;;;;;;0.20;0.10;;;21.90;99.90;;;;;;20627036;28;20235;-75
2021/05/09 09:15:59;;;;;;;0.20;0.10;;;22.30;99.90;;;;;;20605679;28;20282;-74
2021/05/09 09:26:03;;;;;;;0.23;0.10;;;22.40;99.90;;;;;;20628714;28;20708;-78
2021/05/09 09:36:19;;;;;;;0.80;0.50;;;22.60;99.90;;;;;;20621592;28;20273;-75
2021/05/09 09:46:28;;;;;;;0.20;0.10;;;22.30;99.90;;;;;;20603731;28;20194;-76
2021/05/09 09:56:32;;;;;;;0.30;0.30;;;21.60;99.90;;;;;;20609059;28;20219;-76
2021/05/09 10:06:38;;;;;;;0.20;0.00;;;21.90;99.90;;;;;;20617133;28;20234;-73
2021/05/09 10:16:44;;;;;;;0.50;0.50;;;22.40;99.90;;;;;;20616229;28;20499;-75
2021/05/09 10:26:50;;;;;;;1.50;1.10;;;22.90;99.90;;;;;;20615964;28;20192;-74
2021/05/09 10:36:53;;;;;;;1.60;0.93;;;23.80;99.90;;;;;;20616476;28;20556;-74
2021/05/09 10:47:08;;;;;;;0.20;0.20;;;23.90;99.90;;;;;;20616672;28;20218;-73
2021/05/09 10:57:45;;;;;;;1.23;0.47;;;24.60;99.90;;;;;;20613260;28;20645;-69
2021/05/09 11:07:49;;;;;;;0.40;0.20;;;23.80;99.90;;;;;;20623124;28;20228;-67
2021/05/09 11:17:52;;;;;;;0.47;0.25;;;23.50;99.90;;;;;;20622821;28;20311;-71
2021/05/09 11:27:56;;;;;;;0.60;0.30;;;23.40;99.90;;;;;;20613525;28;20283;-68
2021/05/09 11:37:58;;;;;;;0.40;0.20;;;23.90;99.90;;;;;;20593756;28;20238;-70
2021/05/09 11:48:02;;;;;;;1.05;0.95;;;24.80;99.90;;;;;;20612659;28;20334;-71
2021/05/09 11:58:16;;;;;;;0.98;0.75;;;25.10;99.90;;;;;;20616847;28;20203;-72
2021/05/09 12:08:20;;;;;;;1.40;1.03;;;24.00;99.90;;;;;;20610954;28;21308;-75
2021/05/09 12:18:28;;;;;;;1.90;0.37;;;22.90;99.90;;;;;;20612354;28;21118;-72
2021/05/09 12:28:32;;;;;;;0.50;0.47;;;22.20;99.90;;;;;;20614093;28;20680;-73
2021/05/09 12:38:35;;;;;;;0.30;0.30;;;22.20;99.90;;;;;;20592817;28;20196;-73
2021/05/09 12:48:39;;;;;;;4.47;1.23;;;21.70;99.90;;;;;;20609513;28;20227;-72
2021/05/09 12:58:59;;;;;;;1.70;0.67;;;22.10;99.90;;;;;;20606236;28;20203;-74
2021/05/09 13:09:03;;;;;;;0.20;0.20;;;22.30;99.90;;;;;;20595449;28;20234;-75
2021/05/09 13:19:06;;;;;;;0.20;0.20;;;21.90;99.90;;;;;;20610364;28;20198;-72
2021/05/09 13:29:10;;;;;;;5.00;1.17;;;22.40;99.90;;;;;;20618221;28;20219;-70
2021/05/09 13:39:13;;;;;;;0.90;0.37;;;22.40;99.90;;;;;;20618928;28;20203;-71
2021/05/09 13:49:18;;;;;;;1.63;0.90;;;23.60;99.90;;;;;;20621173;28;20306;-73
2021/05/09 13:59:20;;;;;;;0.20;0.10;;;24.00;99.90;;;;;;20621471;28;20216;-73
2021/05/09 14:09:24;;;;;;;0.68;0.17;;;23.60;99.90;;;;;;20700266;28;20241;-73
2021/05/09 14:19:27;;;;;;;1.15;0.63;;;24.30;99.90;;;;;;20700879;28;20607;-73
2021/05/09 14:29:35;;;;;;;5.85;1.52;;;24.80;99.90;;;;;;20632197;28;20226;-75
2021/05/09 14:39:41;;;;;;;4.22;1.15;;;25.80;99.90;;;;;;20616808;28;20836;-72
2021/05/09 14:49:46;;;;;;;0.28;0.28;;;27.20;99.90;;;;;;20614536;28;20301;-72
2021/05/09 14:59:49;;;;;;;11.73;1.02;;;26.30;99.90;;;;;;20616226;28;20519;-72
2021/05/09 15:09:53;;;;;;;1.23;0.70;;;25.80;99.90;;;;;;20614362;28;20231;-72
2021/05/09 15:19:58;;;;;;;3.70;0.65;;;26.80;99.90;;;;;;20615437;28;20183;-72
2021/05/09 15:30:01;;;;;;;10.35;1.25;;;28.30;99.90;;;;;;20682616;28;20224;-68
2021/05/09 15:40:04;;;;;;;6.10;1.00;;;28.10;99.90;;;;;;20695305;28;20203;-67
2021/05/09 15:50:09;;;;;;;8.63;2.28;;;27.30;99.90;;;;;;20692696;28;20235;-66
2021/05/09 16:00:13;;;;;;;1.13;0.60;;;27.40;99.90;;;;;;20682766;28;21139;-65
2021/05/09 16:10:17;;;;;;;4.32;0.90;;;27.10;99.90;;;;;;20663973;28;20230;-66
2021/05/09 16:20:20;;;;;;;3.35;1.40;;;26.50;99.90;;;;;;20694347;28;20994;-70
2021/05/09 16:30:24;;;;;;;3.55;0.82;;;24.80;99.90;;;;;;20690271;28;20594;-67
2021/05/09 16:40:27;;;;;;;14.20;0.57;;;23.80;99.90;;;;;;20690667;28;20606;-68
2021/05/09 16:50:30;;;;;;;9.00;2.03;;;22.90;99.90;;;;;;20692485;28;20691;-66
2021/05/09 17:00:33;;;;;;;3.10;1.60;;;22.50;99.90;;;;;;20682832;28;20241;-68
2021/05/09 17:10:42;;;;;;;1.97;0.57;;;21.70;99.90;;;;;;20637541;28;20362;-70
2021/05/09 17:20:45;;;;;;;0.80;0.77;;;21.10;99.90;;;;;;20606742;28;20897;-67
2021/05/09 17:30:48;;;;;;;1.33;0.47;;;20.70;99.90;;;;;;20622797;28;20270;-68
2021/05/09 17:40:51;;;;;;;5.43;1.47;;;20.50;99.90;;;;;;20620169;28;20217;-73
2021/05/09 17:50:54;;;;;;;1.80;1.20;;;20.10;99.90;;;;;;20620438;28;20545;-73
2021/05/09 18:00:57;;;;;;;8.70;1.07;;;19.80;99.90;;;;;;20626091;28;20696;-70
2021/05/09 18:11:00;;;;;;;0.90;0.80;;;19.60;99.90;;;;;;20619263;28;20231;-73
2021/05/09 18:31:27;;;;;;;5.10;1.97;;;19.50;99.90;;;;;;20602837;28;20241;-70
2021/05/09 18:41:30;;;;;;;0.23;0.23;;;19.40;99.90;;;;;;20622473;28;20206;-72
2021/05/09 18:51:33;;;;;;;5.70;2.07;;;19.20;99.90;;;;;;20600151;28;20338;-72
2021/05/09 19:01:36;;;;;;;2.17;1.37;;;19.10;99.90;;;;;;20599860;28;20236;-71
2021/05/09 19:11:40;;;;;;;6.70;1.20;;;19.10;99.90;;;;;;20522474;28;21020;-72
2021/05/09 19:21:43;;;;;;;0.37;0.37;;;19.10;99.90;;;;;;20555535;28;20204;-71
2021/05/09 19:31:46;;;;;;;14.37;0.70;;;19.20;99.90;;;;;;20535921;28;20220;-72
2021/05/09 19:41:52;;;;;;;3.70;1.50;;;19.30;99.90;;;;;;20531929;28;20255;-72
2021/05/09 19:51:55;;;;;;;3.23;0.80;;;19.40;99.90;;;;;;20533009;28;20228;-72
2021/05/09 20:01:59;;;;;;;3.43;1.27;;;19.50;99.90;;;;;;20549784;28;20223;-70
2021/05/09 20:12:04;;;;;;;1.90;0.93;;;19.50;99.90;;;;;;20613727;28;20455;-71
2021/05/09 20:22:06;;;;;;;0.63;0.33;;;19.30;99.90;;;;;;20642332;28;20218;-71
2021/05/09 20:32:10;;;;;;;0.53;0.53;;;19.40;99.90;;;;;;20654805;28;20226;-73
2021/05/09 20:42:13;;;;;;;0.70;0.50;;;19.60;99.90;;;;;;20626095;28;20282;-72
2021/05/09 20:52:16;;;;;;;2.73;1.17;;;19.70;99.90;;;;;;20687582;28;20218;-72
2021/05/09 21:02:19;;;;;;;3.00;1.93;;;19.80;99.90;;;;;;20683568;28;20233;-72
2021/05/09 21:12:23;;;;;;;5.77;3.40;;;19.70;99.90;;;;;;20616095;28;20223;-72
2021/05/09 21:22:25;;;;;;;1.43;0.77;;;19.60;99.90;;;;;;20684251;28;20644;-72
2021/05/09 21:32:29;;;;;;;14.27;1.90;;;19.50;99.90;;;;;;20684828;28;20230;-72
2021/05/09 21:42:31;;;;;;;5.93;1.23;;;19.40;99.90;;;;;;20660771;28;20674;-73
2021/05/09 21:52:35;;;;;;;3.67;1.37;;;18.90;99.90;;;;;;20654443;28;20227;-73
2021/05/09 22:02:40;;;;;;;6.63;1.47;;;18.70;99.90;;;;;;20630635;28;20221;-73
2021/05/09 22:12:44;;;;;;;3.23;1.27;;;18.50;99.90;;;;;;20552522;28;20239;-75
2021/05/09 22:22:47;;;;;;;1.73;1.20;;;18.40;99.90;;;;;;20519923;28;20192;-73
2021/05/09 22:32:51;;;;;;;0.43;0.43;;;18.30;99.90;;;;;;20537397;28;20243;-73
2021/05/09 22:42:53;;;;;;;3.10;0.60;;;18.30;99.90;;;;;;20518907;28;20192;-74
2021/05/09 22:52:57;;;;;;;0.47;0.47;;;18.00;99.90;;;;;;20519334;28;20677;-73
2021/05/09 23:02:59;;;;;;;1.27;1.17;;;17.70;99.90;;;;;;20558317;28;20242;-72
2021/05/09 23:13:03;;;;;;;8.33;1.50;;;17.80;99.90;;;;;;20612223;28;20418;-72
2021/05/09 23:23:06;;;;;;;5.97;0.70;;;17.90;99.90;;;;;;20614101;28;20701;-71
2021/05/09 23:33:10;;;;;;;0.20;0.20;;;17.60;99.90;;;;;;20614826;28;20238;-71
2021/05/09 23:43:13;;;;;;;1.17;0.63;;;17.60;99.90;;;;;;20613716;28;20187;-72
2021/05/09 23:53:16;;;;;;;6.97;1.63;;;17.80;99.90;;;;;;20612999;28;20326;-74
